Time;durP1;ratioP1;P1;durP2;ratioP2;P2;SDS_P1;SDS_P2;PMS_P1;PMS_P2;Temp;Humidity;BMP_temperature;BMP_pressure;BME280_temperature;BME280_humidity;BME280_pressure;Samples;Min_cycle;Max_cycle;Signal;HPM_P1;HPM_P2
2022/05/30 00:00:26;;;;;;;7.25;3.50;;;17.50;99.90;;;;;;5070567;28;20068;-55
2022/05/30 00:02:53;;;;;;;5.00;3.40;;;17.60;99.90;;;;;;5072650;28;20049;-54
2022/05/30 00:05:20;;;;;;;4.45;3.20;;;17.60;99.90;;;;;;5063245;28;20025;-53
2022/05/30 00:07:47;;;;;;;6.10;3.40;;;17.70;99.90;;;;;;5055279;28;20033;-52
2022/05/30 00:10:14;;;;;;;8.45;3.75;;;17.60;99.90;;;;;;5060049;28;20470;-52
2022/05/30 00:12:40;;;;;;;9.25;4.43;;;17.50;99.90;;;;;;5056739;28;20047;-54
2022/05/30 00:15:09;;;;;;;8.65;4.63;;;17.30;99.90;;;;;;5073265;28;20387;-55
2022/05/30 00:17:35;;;;;;;7.97;5.20;;;17.20;99.90;;;;;;5071768;28;20040;-51
2022/05/30 00:20:01;;;;;;;6.30;4.78;;;17.10;99.90;;;;;;5044003;28;20369;-51
2022/05/30 00:22:27;;;;;;;5.60;3.78;;;16.80;99.90;;;;;;5056116;28;20052;-55
2022/05/30 00:24:53;;;;;;;5.50;3.45;;;16.80;99.90;;;;;;5073238;28;20045;-52
2022/05/30 00:27:19;;;;;;;3.83;2.65;;;17.00;99.90;;;;;;5072169;28;20087;-54
2022/05/30 00:29:45;;;;;;;6.60;3.00;;;17.00;99.90;;;;;;5059221;28;20071;-50
2022/05/30 00:32:11;;;;;;;5.57;3.30;;;17.10;99.90;;;;;;5055391;28;20041;-51
2022/05/30 00:34:37;;;;;;;8.07;3.38;;;17.20;99.90;;;;;;5058851;28;20021;-54
2022/05/30 00:37:03;;;;;;;6.18;3.35;;;17.30;99.90;;;;;;5058308;28;20033;-53
2022/05/30 00:39:29;;;;;;;5.90;3.70;;;17.30;99.90;;;;;;5059760;28;20029;-55
2022/05/30 00:42:18;;;;;;;8.70;3.25;;;17.10;99.90;;;;;;5055075;28;20538;-53
2022/05/30 00:44:45;;;;;;;6.00;3.50;;;16.90;99.90;;;;;;5056854;28;20095;-52
2022/05/30 00:47:11;;;;;;;6.32;3.40;;;16.90;99.90;;;;;;5058283;28;20032;-54
2022/05/30 00:49:39;;;;;;;6.15;3.38;;;16.80;99.90;;;;;;5059241;28;20025;-54
2022/05/30 00:52:08;;;;;;;7.20;3.85;;;16.80;99.90;;;;;;5054524;28;20193;-51
2022/05/30 00:54:40;;;;;;;6.13;3.72;;;16.80;99.90;;;;;;5042336;28;20109;-52
2022/05/30 00:57:28;;;;;;;7.75;3.25;;;16.80;99.90;;;;;;5047625;28;20177;-53
2022/05/30 01:00:07;;;;;;;3.90;3.13;;;16.80;99.90;;;;;;5076991;28;20097;-51
2022/05/30 01:02:35;;;;;;;4.90;3.47;;;16.80;99.90;;;;;;5056740;28;20435;-55
2022/05/30 01:07:47;;;;;;;5.97;3.63;;;16.80;99.90;;;;;;5079048;28;20083;-55
2022/05/30 01:10:16;;;;;;;5.85;3.17;;;17.00;99.90;;;;;;5072262;28;20103;-54
2022/05/30 01:12:49;;;;;;;5.15;3.30;;;16.80;99.90;;;;;;5060476;28;20178;-54
2022/05/30 01:15:17;;;;;;;6.32;3.17;;;16.70;99.90;;;;;;5079646;28;20086;-56
2022/05/30 01:17:55;;;;;;;6.50;3.75;;;17.00;99.90;;;;;;5058943;28;20040;-57
2022/05/30 01:20:52;;;;;;;6.32;3.35;;;17.10;99.90;;;;;;5074782;28;20029;-51
2022/05/30 01:23:30;;;;;;;5.78;3.13;;;17.20;99.90;;;;;;5056717;28;20128;-54
2022/05/30 01:26:16;;;;;;;4.50;3.35;;;17.20;99.90;;;;;;5043097;28;20068;-56
2022/05/30 01:29:05;;;;;;;6.15;3.58;;;17.30;99.90;;;;;;5033238;28;20116;-55
2022/05/30 01:31:31;;;;;;;7.43;3.78;;;17.30;99.90;;;;;;5033960;28;20034;-56
2022/05/30 01:33:57;;;;;;;4.95;3.55;;;17.40;99.90;;;;;;5032028;28;20037;-55
2022/05/30 01:36:25;;;;;;;4.32;3.78;;;17.40;99.90;;;;;;5033099;28;20041;-56
2022/05/30 01:38:51;;;;;;;5.70;3.35;;;17.50;99.90;;;;;;5034635;28;20457;-54
2022/05/30 01:41:17;;;;;;;5.03;3.42;;;17.60;99.90;;;;;;5017289;28;20366;-53
2022/05/30 01:43:45;;;;;;;6.13;4.35;;;17.60;99.90;;;;;;5032009;28;20458;-54
2022/05/30 01:46:15;;;;;;;7.28;4.45;;;17.60;99.90;;;;;;5035975;28;20091;-55
2022/05/30 01:48:42;;;;;;;6.00;3.72;;;17.60;99.90;;;;;;5037238;28;20017;-55
2022/05/30 01:51:08;;;;;;;4.38;3.35;;;17.60;99.90;;;;;;5034128;28;20108;-54
2022/05/30 01:53:33;;;;;;;7.28;4.53;;;17.60;99.90;;;;;;5028537;28;20045;-51
2022/05/30 01:55:59;;;;;;;6.90;3.58;;;17.60;99.90;;;;;;5033461;28;20075;-57
2022/05/30 01:58:25;;;;;;;7.32;3.95;;;17.50;99.90;;;;;;5037867;28;20115;-55
2022/05/30 02:00:51;;;;;;;7.93;4.28;;;17.10;99.90;;;;;;5048851;28;20114;-56
2022/05/30 02:03:17;;;;;;;6.72;4.10;;;16.90;99.90;;;;;;5054827;28;20095;-54
2022/05/30 02:05:43;;;;;;;7.57;4.97;;;17.00;99.90;;;;;;5053438;28;20033;-53
2022/05/30 02:08:08;;;;;;;6.10;5.20;;;17.10;99.90;;;;;;5055181;28;20387;-52
2022/05/30 02:10:35;;;;;;;7.10;5.38;;;16.70;99.90;;;;;;5056549;28;20480;-55
2022/05/30 02:13:02;;;;;;;8.27;5.72;;;16.90;99.90;;;;;;5054310;28;20037;-52
2022/05/30 02:15:28;;;;;;;8.45;5.35;;;17.10;99.90;;;;;;5056987;28;20045;-54
2022/05/30 02:17:54;;;;;;;10.88;6.40;;;17.20;99.90;;;;;;5059974;28;20040;-53
2022/05/30 02:20:20;;;;;;;11.90;6.13;;;16.90;99.90;;;;;;5056785;28;20025;-55
2022/05/30 02:22:47;;;;;;;8.57;6.45;;;16.80;99.90;;;;;;5053916;28;20044;-55
2022/05/30 02:25:13;;;;;;;9.20;6.20;;;16.70;99.90;;;;;;5057943;28;20032;-52
2022/05/30 02:27:41;;;;;;;11.35;6.43;;;16.70;99.90;;;;;;5055505;28;20432;-52
2022/05/30 02:30:08;;;;;;;9.65;6.40;;;16.90;99.90;;;;;;5056123;28;20079;-54
2022/05/30 02:32:34;;;;;;;10.20;6.55;;;16.90;99.90;;;;;;5069881;28;20079;-54
2022/05/30 02:37:43;;;;;;;8.98;6.82;;;16.70;99.90;;;;;;5052309;28;20055;-54
2022/05/30 02:40:10;;;;;;;9.23;6.70;;;16.70;99.90;;;;;;5072104;28;20032;-56
2022/05/30 02:42:35;;;;;;;9.93;6.57;;;16.80;99.90;;;;;;5018711;28;20040;-53
2022/05/30 02:45:01;;;;;;;8.50;6.18;;;17.00;99.90;;;;;;5055741;28;20431;-56
2022/05/30 02:47:27;;;;;;;9.98;6.38;;;17.00;99.90;;;;;;5054862;28;20028;-54
2022/05/30 02:49:53;;;;;;;10.38;7.00;;;17.00;99.90;;;;;;5052678;28;20064;-52
2022/05/30 02:52:19;;;;;;;10.90;6.53;;;17.00;99.90;;;;;;5062646;28;20028;-54
2022/05/30 02:54:44;;;;;;;7.15;5.85;;;17.10;99.90;;;;;;5053679;28;20361;-54
2022/05/30 02:57:11;;;;;;;9.25;5.18;;;;;;;;;;5053045;28;20029;-54
2022/05/30 02:59:36;;;;;;;9.07;5.88;;;16.90;99.90;;;;;;5067874;28;20063;-55
2022/05/30 03:02:03;;;;;;;6.30;5.32;;;16.70;99.90;;;;;;5052846;28;20049;-53
2022/05/30 03:04:29;;;;;;;7.07;5.28;;;16.80;99.90;;;;;;5052892;28;20029;-56
2022/05/30 03:06:54;;;;;;;7.30;5.18;;;16.90;99.90;;;;;;5067968;28;20118;-55
2022/05/30 03:09:20;;;;;;;7.88;5.22;;;17.00;99.90;;;;;;5053108;28;20021;-52
2022/05/30 03:11:46;;;;;;;9.52;5.90;;;17.00;99.90;;;;;;5052748;28;20041;-51
2022/05/30 03:14:12;;;;;;;10.50;6.22;;;17.10;99.90;;;;;;5052931;28;20029;-55
2022/05/30 03:16:38;;;;;;;8.10;5.70;;;17.00;99.90;;;;;;5052828;28;20183;-54
2022/05/30 03:19:04;;;;;;;10.70;6.00;;;17.10;99.90;;;;;;5034231;28;20033;-55
2022/05/30 03:21:29;;;;;;;8.02;5.65;;;17.20;99.90;;;;;;5067493;28;20052;-55
2022/05/30 03:23:55;;;;;;;9.82;6.07;;;16.70;99.90;;;;;;5067651;28;20480;-55
2022/05/30 03:26:21;;;;;;;8.75;6.13;;;16.50;99.90;;;;;;5051021;28;20036;-52
2022/05/30 03:28:47;;;;;;;7.90;6.35;;;16.20;99.90;;;;;;5052836;28;20362;-53
2022/05/30 03:31:13;;;;;;;10.40;6.22;;;15.90;99.90;;;;;;5053081;28;20025;-54
2022/05/30 03:33:39;;;;;;;10.77;6.90;;;15.60;99.90;;;;;;5052744;28;20033;-54
2022/05/30 03:36:27;;;;;;;16.90;7.47;;;15.60;99.90;;;;;;5101405;28;20075;-54
2022/05/30 03:38:54;;;;;;;13.75;7.93;;;15.70;99.90;;;;;;5052647;28;20540;-52
2022/05/30 03:41:20;;;;;;;19.27;10.32;;;16.10;99.90;;;;;;5052984;28;20092;-55
2022/05/30 03:43:45;;;;;;;13.27;8.75;;;16.40;99.90;;;;;;5052691;28;20116;-53
2022/05/30 03:46:11;;;;;;;14.32;8.95;;;16.70;99.90;;;;;;5052648;28;20461;-55
2022/05/30 03:48:37;;;;;;;11.98;9.55;;;16.80;99.90;;;;;;5052502;28;20036;-51
2022/05/30 03:51:05;;;;;;;13.45;8.95;;;16.60;99.90;;;;;;5052771;28;20074;-53
2022/05/30 03:53:31;;;;;;;9.50;8.57;;;16.50;99.90;;;;;;5052529;28;20128;-52
2022/05/30 03:55:56;;;;;;;11.50;8.65;;;16.50;99.90;;;;;;5052549;28;20483;-52
2022/05/30 03:58:22;;;;;;;11.48;9.00;;;16.40;99.90;;;;;;5067507;28;20407;-51
2022/05/30 04:00:48;;;;;;;11.70;9.07;;;16.30;99.90;;;;;;5104884;28;20048;-53
2022/05/30 04:03:13;;;;;;;12.27;8.88;;;16.30;99.90;;;;;;5053797;28;20461;-54
2022/05/30 04:05:40;;;;;;;9.45;8.23;;;16.40;99.90;;;;;;5054702;28;20033;-52
2022/05/30 04:08:06;;;;;;;12.63;8.43;;;16.30;99.90;;;;;;5053357;28;20049;-52
2022/05/30 04:10:32;;;;;;;11.75;8.30;;;16.20;99.90;;;;;;5053614;28;20120;-54
2022/05/30 04:13:00;;;;;;;12.48;8.82;;;16.40;99.90;;;;;;5055650;28;20120;-56
2022/05/30 04:15:26;;;;;;;14.68;9.00;;;16.50;99.90;;;;;;5068870;28;20102;-57
2022/05/30 04:17:52;;;;;;;14.38;9.20;;;16.60;99.90;;;;;;5055830;28;20025;-56
2022/05/30 04:20:17;;;;;;;10.60;9.10;;;16.70;99.90;;;;;;5055704;28;20048;-55
2022/05/30 04:22:46;;;;;;;9.15;8.13;;;16.80;99.90;;;;;;5070404;28;20124;-55
2022/05/30 04:25:12;;;;;;;10.63;8.73;;;16.70;99.90;;;;;;5055997;28;20033;-52
2022/05/30 04:27:38;;;;;;;8.38;7.47;;;17.00;99.90;;;;;;5055703;28;20029;-55
2022/05/30 04:30:06;;;;;;;8.88;7.15;;;16.90;99.90;;;;;;5054410;28;20105;-52
2022/05/30 04:32:32;;;;;;;11.10;8.20;;;16.90;99.90;;;;;;5052936;28;20132;-57
2022/05/30 04:34:58;;;;;;;12.15;8.00;;;16.80;99.90;;;;;;5054009;28;20156;-58
2022/05/30 04:37:24;;;;;;;8.98;7.38;;;16.70;99.90;;;;;;5080730;28;20502;-56
2022/05/30 04:39:50;;;;;;;8.98;7.20;;;16.70;99.90;;;;;;5054921;28;20021;-55
2022/05/30 04:42:15;;;;;;;8.65;7.57;;;16.80;99.90;;;;;;5053319;28;20438;-55
2022/05/30 04:44:41;;;;;;;10.32;7.65;;;16.90;99.90;;;;;;5054609;28;20146;-51
2022/05/30 04:47:10;;;;;;;11.13;7.22;;;17.00;99.90;;;;;;5054827;28;20029;-54
2022/05/30 04:49:35;;;;;;;11.27;7.68;;;17.10;99.90;;;;;;5055640;28;20091;-54
2022/05/30 04:52:01;;;;;;;12.25;7.15;;;17.20;99.90;;;;;;5055007;28;20384;-57
2022/05/30 04:54:27;;;;;;;8.18;7.10;;;17.40;99.90;;;;;;5055189;28;20025;-53
2022/05/30 04:56:53;;;;;;;8.65;7.20;;;17.60;99.90;;;;;;5052240;28;20035;-53
2022/05/30 04:59:19;;;;;;;10.82;7.80;;;17.70;99.90;;;;;;5054398;28;20029;-53
2022/05/30 05:01:44;;;;;;;11.50;7.55;;;17.70;99.90;;;;;;5051435;28;20064;-56
2022/05/30 05:04:11;;;;;;;10.18;7.60;;;17.80;99.90;;;;;;5050996;28;20043;-53
2022/05/30 05:06:38;;;;;;;11.02;7.15;;;17.80;99.90;;;;;;5050084;28;20392;-53
2022/05/30 05:09:15;;;;;;;12.80;7.85;;;17.80;99.90;;;;;;5069599;28;20473;-55
2022/05/30 05:11:42;;;;;;;9.13;7.43;;;18.00;99.90;;;;;;5054842;28;20079;-55
2022/05/30 05:14:08;;;;;;;12.10;7.43;;;17.90;99.90;;;;;;5054696;28;20041;-54
2022/05/30 05:29:54;;;;;;;10.10;8.68;;;18.20;99.90;;;;;;5060572;28;20403;-55
2022/05/30 05:32:20;;;;;;;12.77;8.50;;;18.20;99.90;;;;;;5055276;28;20472;-55
2022/05/30 05:34:50;;;;;;;10.68;8.20;;;18.10;99.90;;;;;;5090434;28;20029;-54
2022/05/30 05:37:16;;;;;;;9.75;7.68;;;18.00;99.90;;;;;;5061110;28;20044;-54
2022/05/30 05:39:43;;;;;;;13.32;8.38;;;18.00;99.90;;;;;;5060531;28;20033;-58
2022/05/30 05:42:09;;;;;;;11.20;7.45;;;17.90;99.90;;;;;;5059375;28;20033;-55
2022/05/30 05:44:35;;;;;;;9.73;7.13;;;17.90;99.90;;;;;;5058176;28;20419;-53
2022/05/30 05:47:00;;;;;;;10.88;7.93;;;17.90;99.90;;;;;;5054551;28;20043;-56
2022/05/30 05:49:26;;;;;;;8.63;7.18;;;17.90;99.90;;;;;;5059118;28;20033;-55
2022/05/30 05:51:54;;;;;;;9.55;7.35;;;17.90;99.90;;;;;;5062503;28;20388;-54
2022/05/30 05:54:23;;;;;;;10.95;7.40;;;17.80;99.90;;;;;;5056840;28;20029;-53
2022/05/30 05:56:49;;;;;;;11.43;7.88;;;17.70;99.90;;;;;;5055252;28;20037;-53
2022/05/30 05:59:16;;;;;;;9.18;6.82;;;17.50;99.90;;;;;;5079460;28;20072;-55
2022/05/30 06:01:41;;;;;;;7.63;6.68;;;17.50;99.90;;;;;;5058770;28;20037;-52
2022/05/30 06:04:10;;;;;;;7.30;6.13;;;17.60;99.90;;;;;;5060804;28;20029;-55
2022/05/30 06:06:36;;;;;;;8.50;6.22;;;17.60;99.90;;;;;;5054101;28;20029;-53
2022/05/30 06:09:04;;;;;;;6.97;5.95;;;17.70;99.90;;;;;;5057472;28;20029;-53
2022/05/30 06:11:31;;;;;;;11.88;6.40;;;17.70;99.90;;;;;;5060983;28;20044;-54
2022/05/30 06:13:57;;;;;;;6.57;5.85;;;17.70;99.90;;;;;;5071595;28;20057;-53
2022/05/30 06:16:26;;;;;;;9.05;6.40;;;17.60;99.90;;;;;;5057933;28;20056;-52
2022/05/30 06:18:54;;;;;;;8.35;6.25;;;17.70;99.90;;;;;;5066102;28;20056;-56
2022/05/30 06:21:23;;;;;;;11.32;6.53;;;17.70;99.90;;;;;;5061163;28;20024;-55
2022/05/30 06:23:49;;;;;;;10.05;6.57;;;17.60;99.90;;;;;;5058184;28;20488;-56
2022/05/30 06:26:15;;;;;;;11.73;6.63;;;17.60;99.90;;;;;;5076479;28;20041;-55
2022/05/30 06:28:41;;;;;;;8.13;7.03;;;17.70;99.90;;;;;;5061824;28;20504;-54
2022/05/30 06:31:13;;;;;;;12.52;7.75;;;17.70;99.90;;;;;;5044831;28;20116;-57
2022/05/30 06:33:40;;;;;;;12.88;7.18;;;17.70;99.90;;;;;;5045274;28;20081;-53
2022/05/30 06:36:08;;;;;;;8.43;6.57;;;17.70;99.90;;;;;;5046221;28;20040;-54
2022/05/30 06:38:34;;;;;;;10.77;6.63;;;17.80;99.90;;;;;;5045247;28;20131;-56
2022/05/30 06:41:17;;;;;;;9.20;7.28;;;17.90;99.90;;;;;;5039136;28;20037;-51
2022/05/30 06:43:44;;;;;;;10.57;7.35;;;17.90;99.90;;;;;;5043940;28;20132;-56
2022/05/30 06:46:12;;;;;;;7.82;6.30;;;18.00;99.90;;;;;;5076128;28;20041;-57
2022/05/30 06:48:38;;;;;;;9.43;6.80;;;18.10;99.90;;;;;;5041322;28;20053;-55
2022/05/30 06:51:06;;;;;;;10.20;6.45;;;18.30;99.90;;;;;;5041117;28;20114;-54
2022/05/30 06:53:32;;;;;;;7.85;7.00;;;18.20;99.90;;;;;;5048997;28;20071;-55
2022/05/30 06:55:58;;;;;;;10.73;7.18;;;18.20;99.90;;;;;;5043324;28;20029;-54
2022/05/30 06:58:24;;;;;;;8.57;7.60;;;18.10;99.90;;;;;;5045014;28;20385;-56
2022/05/30 07:00:50;;;;;;;14.15;7.78;;;18.10;99.90;;;;;;5044387;28;20029;-58
2022/05/30 07:03:17;;;;;;;10.95;7.00;;;18.30;99.90;;;;;;5048297;28;20460;-54
2022/05/30 07:05:44;;;;;;;7.60;6.65;;;18.40;99.90;;;;;;5049276;28;20037;-54
2022/05/30 07:08:12;;;;;;;9.18;7.03;;;18.40;99.90;;;;;;5047238;28;20026;-56
2022/05/30 07:10:39;;;;;;;10.35;7.13;;;18.50;99.90;;;;;;5056147;28;20041;-56
2022/05/30 07:13:05;;;;;;;7.40;6.68;;;18.60;99.90;;;;;;5044376;28;20126;-55
2022/05/30 07:15:35;;;;;;;7.90;6.40;;;18.70;99.90;;;;;;5058442;28;20063;-58
2022/05/30 07:18:11;;;;;;;9.35;7.07;;;18.90;99.90;;;;;;5041116;28;20037;-56
2022/05/30 07:20:37;;;;;;;7.80;6.90;;;18.80;99.90;;;;;;5058508;28;20083;-56
2022/05/30 07:23:03;;;;;;;8.80;7.88;;;19.00;99.90;;;;;;5047729;28;20037;-55
2022/05/30 07:25:33;;;;;;;10.18;7.78;;;18.70;99.90;;;;;;5053445;28;20041;-54
2022/05/30 07:27:58;;;;;;;10.60;7.72;;;18.90;99.90;;;;;;5059056;28;20053;-55
2022/05/30 07:30:24;;;;;;;11.85;8.48;;;18.80;99.90;;;;;;5062169;28;20404;-52
2022/05/30 07:32:50;;;;;;;9.82;8.25;;;19.10;99.90;;;;;;5046182;28;20025;-50
2022/05/30 07:35:16;;;;;;;10.00;7.97;;;;;;;;;;5056558;28;20048;-57
2022/05/30 07:37:42;;;;;;;13.45;8.60;;;19.30;99.90;;;;;;5042941;28;20083;-55
2022/05/30 07:40:08;;;;;;;12.13;8.52;;;19.30;99.90;;;;;;5045131;28;20017;-55
2022/05/30 07:42:34;;;;;;;11.50;8.35;;;;;;;;;;5062018;28;20041;-56
2022/05/30 07:45:00;;;;;;;13.30;8.65;;;19.80;99.90;;;;;;5037235;28;20048;-55
2022/05/30 07:47:27;;;;;;;12.57;7.80;;;20.10;99.90;;;;;;5039823;28;20029;-56
2022/05/30 07:49:53;;;;;;;10.50;8.00;;;20.30;99.90;;;;;;5040591;28;20033;-56
2022/05/30 07:52:19;;;;;;;9.75;8.02;;;20.10;99.90;;;;;;5037146;28;20033;-55
2022/05/30 07:54:45;;;;;;;12.68;9.60;;;20.50;99.90;;;;;;5041742;28;20044;-56
2022/05/30 07:57:11;;;;;;;12.48;10.30;;;20.20;99.90;;;;;;5047840;28;20380;-56
2022/05/30 07:59:37;;;;;;;9.90;8.90;;;20.10;99.90;;;;;;5061484;28;20091;-55
2022/05/30 08:02:04;;;;;;;11.98;8.43;;;20.40;99.90;;;;;;5047481;28;20025;-56
2022/05/30 08:04:30;;;;;;;10.02;8.85;;;20.50;99.90;;;;;;5041150;28;20448;-56
2022/05/30 08:06:56;;;;;;;10.13;7.82;;;20.50;99.90;;;;;;5039727;28;20034;-56
2022/05/30 08:09:22;;;;;;;10.88;8.25;;;20.50;99.90;;;;;;5046351;28;20025;-56
2022/05/30 08:11:48;;;;;;;11.18;7.70;;;20.50;99.90;;;;;;5038946;28;20039;-56
2022/05/30 08:14:14;;;;;;;10.18;7.80;;;20.80;99.90;;;;;;5061158;28;20035;-55
2022/05/30 08:16:39;;;;;;;10.98;7.80;;;20.70;99.90;;;;;;5035720;28;20029;-55
2022/05/30 08:19:06;;;;;;;11.75;8.73;;;21.00;99.90;;;;;;5035171;28;20029;-56
2022/05/30 08:21:32;;;;;;;10.13;7.82;;;21.30;99.90;;;;;;5044118;28;20025;-55
2022/05/30 08:23:57;;;;;;;10.43;8.95;;;21.50;99.90;;;;;;5041912;28;20491;-56
2022/05/30 08:26:23;;;;;;;13.73;11.77;;;21.70;99.90;;;;;;5043488;28;20112;-56
2022/05/30 08:28:49;;;;;;;14.95;11.13;;;21.60;99.90;;;;;;5042099;28;20052;-55
2022/05/30 08:31:16;;;;;;;18.73;16.73;;;21.20;99.90;;;;;;5039973;28;20534;-55
2022/05/30 08:33:42;;;;;;;17.55;14.18;;;20.90;99.90;;;;;;5041700;28;20037;-56
2022/05/30 08:36:13;;;;;;;14.75;13.10;;;20.70;99.90;;;;;;5044145;28;20029;-56
2022/05/30 08:38:39;;;;;;;14.43;12.90;;;20.60;99.90;;;;;;5041118;28;20036;-56
2022/05/30 08:44:00;;;;;;;13.20;11.85;;;21.30;99.90;;;;;;5034611;28;20128;-56
2022/05/30 08:46:37;;;;;;;13.20;11.88;;;21.40;99.90;;;;;;5062806;28;20071;-55
2022/05/30 08:49:22;;;;;;;16.55;14.85;;;21.60;99.90;;;;;;5042679;28;20548;-56
2022/05/30 08:51:54;;;;;;;18.58;13.73;;;21.50;99.90;;;;;;5046477;28;20404;-56
2022/05/30 08:54:38;;;;;;;17.65;13.50;;;;;;;;;;5037746;28;20087;-56
2022/05/30 08:57:16;;;;;;;16.77;15.07;;;22.00;99.90;;;;;;5041631;28;20036;-56
2022/05/30 08:59:41;;;;;;;18.90;16.65;;;22.20;99.90;;;;;;5039698;28;20041;-56
2022/05/30 09:02:20;;;;;;;18.55;16.65;;;22.10;99.90;;;;;;5047907;28;20475;-56
2022/05/30 09:04:58;;;;;;;20.40;18.30;;;21.70;99.90;;;;;;5040501;28;20037;-56
2022/05/30 09:07:31;;;;;;;19.23;17.45;;;21.90;99.90;;;;;;5043755;28;20387;-56
2022/05/30 09:10:32;;;;;;;19.38;17.42;;;22.00;99.90;;;;;;5041126;28;20056;-56
2022/05/30 09:13:21;;;;;;;20.48;16.88;;;22.30;99.90;;;;;;5025380;28;20041;-56
2022/05/30 09:16:28;;;;;;;20.27;18.17;;;21.80;99.90;;;;;;5026739;28;20160;-56
2022/05/30 09:18:54;;;;;;;19.50;17.17;;;21.50;99.90;;;;;;5025373;28;20059;-56
2022/05/30 09:21:22;;;;;;;19.90;17.65;;;21.40;99.90;;;;;;5027837;28;20029;-56
2022/05/30 09:23:48;;;;;;;18.95;17.05;;;21.40;99.90;;;;;;5001576;28;20045;-55
2022/05/30 09:26:17;;;;;;;23.30;17.30;;;21.70;99.90;;;;;;5018679;28;20083;-56
2022/05/30 09:28:45;;;;;;;23.70;17.70;;;21.60;99.90;;;;;;5023161;28;20042;-56
2022/05/30 09:31:29;;;;;;;20.52;18.10;;;21.40;99.90;;;;;;5024903;28;20512;-55
2022/05/30 09:33:58;;;;;;;24.38;18.23;;;21.40;99.90;;;;;;5022545;28;20057;-56
2022/05/30 09:36:27;;;;;;;21.50;19.27;;;21.30;99.90;;;;;;5028152;28;20030;-56
2022/05/30 09:39:02;;;;;;;20.98;18.90;;;21.20;99.90;;;;;;5024464;28;20037;-55
2022/05/30 09:41:46;;;;;;;22.65;17.45;;;21.50;99.90;;;;;;5028300;28;20041;-55
2022/05/30 09:44:18;;;;;;;19.73;17.30;;;21.70;99.90;;;;;;5024379;28;20063;-55
2022/05/30 09:46:54;;;;;;;18.75;16.75;;;21.80;99.90;;;;;;5023513;28;20049;-55
2022/05/30 09:49:38;;;;;;;19.58;17.52;;;22.00;99.90;;;;;;5031078;28;20048;-55
2022/05/30 09:52:21;;;;;;;21.42;17.63;;;22.10;99.90;;;;;;5043013;28;20535;-55
2022/05/30 09:54:46;;;;;;;22.70;19.42;;;22.40;99.90;;;;;;5040841;28;20076;-56
2022/05/30 09:57:25;;;;;;;25.35;19.85;;;22.30;99.90;;;;;;5045079;28;20434;-55
2022/05/30 09:59:52;;;;;;;22.17;19.85;;;;;;;;;;5055637;28;20037;-55
2022/05/30 10:02:29;;;;;;;21.42;18.45;;;22.80;99.90;;;;;;5044010;28;20029;-56
2022/05/30 10:05:26;;;;;;;24.65;19.27;;;22.90;99.90;;;;;;5036252;28;20083;-56
2022/05/30 10:07:53;;;;;;;25.25;21.45;;;;;;;;;;5044943;28;20059;-56
2022/05/30 10:10:24;;;;;;;23.95;21.33;;;23.20;99.90;;;;;;5042218;28;20377;-56
2022/05/30 10:12:58;;;;;;;26.33;20.27;;;23.30;99.90;;;;;;5040405;28;20025;-56
2022/05/30 10:15:41;;;;;;;22.23;19.15;;;23.50;99.90;;;;;;5037498;28;20029;-55
2022/05/30 10:18:13;;;;;;;22.98;19.55;;;23.70;99.90;;;;;;5076755;28;20645;-56
2022/05/30 10:21:00;;;;;;;23.17;19.88;;;23.90;99.90;;;;;;5037679;28;20026;-56
2022/05/30 10:30:17;;;;;;;23.38;19.38;;;23.40;99.90;;;;;;4988889;28;20152;-57
2022/05/30 10:33:05;;;;;;;20.40;18.33;;;23.60;99.90;;;;;;4991274;28;22396;-56
2022/05/30 10:35:54;;;;;;;22.95;19.38;;;23.30;99.90;;;;;;4993995;28;20050;-55
2022/05/30 10:38:22;;;;;;;22.20;19.98;;;23.20;99.90;;;;;;4993824;28;20050;-52
2022/05/30 10:41:09;;;;;;;28.52;19.70;;;23.10;99.90;;;;;;4993088;28;20042;-56
2022/05/30 10:43:54;;;;;;;21.33;18.80;;;23.20;99.90;;;;;;4992724;28;20097;-54
2022/05/30 10:46:43;;;;;;;20.38;18.38;;;23.10;99.90;;;;;;4992940;28;20066;-56
2022/05/30 10:49:19;;;;;;;27.15;19.63;;;23.50;99.90;;;;;;4914485;29;20039;-50
2022/05/30 10:52:15;;;;;;;25.83;21.13;;;23.50;99.90;;;;;;4897890;29;20580;-56
2022/05/30 10:54:50;;;;;;;21.08;18.42;;;23.70;99.90;;;;;;4915971;29;20408;-56
2022/05/30 10:57:19;;;;;;;22.85;20.15;;;23.20;99.90;;;;;;4912474;29;20044;-55
2022/05/30 10:59:52;;;;;;;20.10;18.00;;;23.00;99.90;;;;;;4912754;29;20052;-54
2022/05/30 11:02:17;;;;;;;21.42;19.08;;;23.20;99.90;;;;;;4913573;29;20032;-52
2022/05/30 11:04:49;;;;;;;23.75;19.30;;;23.20;99.90;;;;;;4948264;28;20091;-50
2022/05/30 11:07:21;;;;;;;19.48;17.48;;;23.60;99.90;;;;;;4954626;29;20035;-50
2022/05/30 11:09:54;;;;;;;19.73;17.73;;;23.50;99.90;;;;;;4953982;28;20549;-48
2022/05/30 11:12:27;;;;;;;22.33;18.92;;;23.70;99.90;;;;;;4952118;28;20077;-52
2022/05/30 11:15:01;;;;;;;20.73;17.60;;;23.20;99.90;;;;;;4986637;28;20062;-51
2022/05/30 11:17:36;;;;;;;16.70;15.00;;;23.50;99.90;;;;;;4984295;28;20080;-52
2022/05/30 11:20:10;;;;;;;18.02;15.13;;;23.50;99.90;;;;;;4980743;28;20082;-58
2022/05/30 11:22:48;;;;;;;16.55;14.85;;;23.40;99.90;;;;;;4960375;28;20045;-51
2022/05/30 11:25:40;;;;;;;20.05;16.30;;;23.20;99.90;;;;;;4985921;28;20608;-54
2022/05/30 11:28:44;;;;;;;20.70;16.80;;;22.80;99.90;;;;;;5061002;28;20041;-53
2022/05/30 11:31:14;;;;;;;18.77;16.77;;;23.10;99.90;;;;;;5042951;28;20041;-56
2022/05/30 11:33:41;;;;;;;21.55;17.30;;;23.40;99.90;;;;;;5039049;28;20025;-53
2022/05/30 11:36:40;;;;;;;17.98;16.15;;;23.30;99.90;;;;;;5042063;28;20029;-56
2022/05/30 11:39:24;;;;;;;17.65;15.80;;;23.40;99.90;;;;;;5043964;28;20040;-52
2022/05/30 11:42:22;;;;;;;20.17;16.55;;;23.30;99.90;;;;;;5036239;28;20029;-54
2022/05/30 11:45:00;;;;;;;19.58;17.40;;;23.50;99.90;;;;;;5044939;28;20060;-52
2022/05/30 11:47:29;;;;;;;19.83;17.73;;;23.60;99.90;;;;;;5043407;28;20041;-53
2022/05/30 11:50:25;;;;;;;20.88;18.45;;;23.50;99.90;;;;;;5035873;28;20037;-54
2022/05/30 11:53:12;;;;;;;20.00;18.00;;;23.60;99.90;;;;;;5002563;28;20378;-55
2022/05/30 11:55:54;;;;;;;19.63;17.45;;;23.30;99.90;;;;;;5003617;28;20033;-52
2022/05/30 11:58:47;;;;;;;25.10;19.70;;;23.30;99.90;;;;;;4996546;28;20054;-55
2022/05/30 12:01:14;;;;;;;22.25;19.70;;;23.20;99.90;;;;;;5008322;28;20034;-52
2022/05/30 12:04:34;;;;;;;23.60;19.45;;;23.30;99.90;;;;;;5002658;28;20046;-51
2022/05/30 12:07:26;;;;;;;22.67;18.00;;;23.30;99.90;;;;;;4991670;28;20034;-51
2022/05/30 12:10:22;;;;;;;21.88;18.95;;;23.40;99.90;;;;;;4991936;28;20046;-50
2022/05/30 12:13:23;;;;;;;21.52;18.60;;;23.10;99.90;;;;;;4972750;28;20049;-50
2022/05/30 12:16:12;;;;;;;21.17;18.92;;;23.60;99.90;;;;;;4953691;28;20178;-50
2022/05/30 12:24:21;;;;;;;22.08;17.77;;;24.00;99.90;;;;;;4913472;29;20042;-50
2022/05/30 12:26:52;;;;;;;17.40;15.57;;;23.70;99.90;;;;;;4912228;29;20436;-51
2022/05/30 12:29:37;;;;;;;17.85;13.90;;;23.30;99.90;;;;;;4910938;29;20047;-50
2022/05/30 12:32:20;;;;;;;19.15;14.63;;;23.10;99.90;;;;;;4933411;29;20051;-50
2022/05/30 12:35:00;;;;;;;18.88;15.20;;;23.20;99.90;;;;;;4925082;29;20453;-50
2022/05/30 12:37:44;;;;;;;16.25;12.52;;;23.60;99.90;;;;;;4929276;29;20043;-50
2022/05/30 12:40:28;;;;;;;19.45;14.13;;;23.00;99.90;;;;;;4928720;29;20404;-50
2022/05/30 12:43:13;;;;;;;16.35;13.82;;;22.80;99.90;;;;;;4934086;29;20036;-50
2022/05/30 12:45:54;;;;;;;18.25;14.40;;;22.40;99.90;;;;;;4933499;29;20040;-50
2022/05/30 12:48:28;;;;;;;17.05;15.13;;;22.30;99.90;;;;;;4933901;29;20079;-50
2022/05/30 12:50:54;;;;;;;20.65;15.18;;;22.50;99.90;;;;;;4930339;29;20036;-51
2022/05/30 12:53:23;;;;;;;20.63;14.32;;;22.80;99.90;;;;;;4969689;28;20057;-50
2022/05/30 12:55:52;;;;;;;17.63;13.43;;;23.10;99.90;;;;;;5010576;28;20503;-50
2022/05/30 12:58:42;;;;;;;16.95;14.95;;;23.20;99.90;;;;;;5043305;28;20041;-50
2022/05/30 13:01:25;;;;;;;15.27;13.20;;;23.10;99.90;;;;;;5047401;28;20376;-50
2022/05/30 13:04:21;;;;;;;17.70;14.80;;;23.10;99.90;;;;;;5042296;28;20036;-50
2022/05/30 13:07:01;;;;;;;18.27;15.60;;;23.00;99.90;;;;;;5041031;28;20051;-50
2022/05/30 13:09:48;;;;;;;16.83;15.02;;;23.10;99.90;;;;;;5039989;28;20025;-50
2022/05/30 13:12:53;;;;;;;16.75;14.60;;;22.80;99.90;;;;;;5038354;28;20578;-50
2022/05/30 13:15:54;;;;;;;24.23;21.83;;;23.00;99.90;;;;;;5027736;28;20042;-50
2022/05/30 13:18:21;;;;;;;18.70;15.65;;;23.10;99.90;;;;;;5027880;28;20492;-50
2022/05/30 13:21:00;;;;;;;67.10;54.72;;;22.80;99.90;;;;;;5008691;28;20108;-50
2022/05/30 13:23:28;;;;;;;22.65;19.70;;;22.50;99.90;;;;;;5029932;28;20047;-50
2022/05/30 13:25:55;;;;;;;48.55;36.03;;;22.60;99.90;;;;;;4981546;28;20080;-50
2022/05/30 13:28:49;;;;;;;17.63;15.77;;;22.60;99.90;;;;;;4976954;28;20132;-50
2022/05/30 13:31:15;;;;;;;34.45;24.38;;;22.30;99.90;;;;;;5026477;28;20448;-50
2022/05/30 13:33:52;;;;;;;35.10;26.17;;;22.20;99.90;;;;;;5025817;28;20033;-50